sensor_id;sensor_type;location;lat;lon;timestamp;P1;durP1;ratioP1;P2;durP2;ratioP2
42110;SDS011;27766;52.174;5.456;2023-02-27T00:01:18;11.52;;;6.60;;
42110;SDS011;27766;52.174;5.456;2023-02-27T00:03:46;14.07;;;6.55;;
42110;SDS011;27766;52.174;5.456;2023-02-27T00:06:13;12.38;;;6.82;;
42110;SDS011;27766;52.174;5.456;2023-02-27T00:08:40;8.07;;;5.65;;
42110;SDS011;27766;52.174;5.456;2023-02-27T00:11:07;17.88;;;5.85;;
42110;SDS011;27766;52.174;5.456;2023-02-27T00:13:34;16.63;;;6.07;;
42110;SDS011;27766;52.174;5.456;2023-02-27T00:16:01;11.63;;;5.40;;
42110;SDS011;27766;52.174;5.456;2023-02-27T00:18:29;11.48;;;5.10;;
42110;SDS011;27766;52.174;5.456;2023-02-27T00:20:56;7.97;;;4.60;;
42110;SDS011;27766;52.174;5.456;2023-02-27T00:23:26;10.70;;;5.10;;
42110;SDS011;27766;52.174;5.456;2023-02-27T00:25:57;14.05;;;5.25;;
42110;SDS011;27766;52.174;5.456;2023-02-27T00:28:27;5.97;;;3.95;;
42110;SDS011;27766;52.174;5.456;2023-02-27T00:30:54;11.85;;;5.20;;
42110;SDS011;27766;52.174;5.456;2023-02-27T00:33:21;6.80;;;4.28;;
42110;SDS011;27766;52.174;5.456;2023-02-27T00:35:58;13.05;;;4.40;;
42110;SDS011;27766;52.174;5.456;2023-02-27T00:38:26;9.98;;;4.65;;
42110;SDS011;27766;52.174;5.456;2023-02-27T00:40:55;9.27;;;4.80;;
42110;SDS011;27766;52.174;5.456;2023-02-27T00:43:23;9.63;;;5.03;;
42110;SDS011;27766;52.174;5.456;2023-02-27T00:45:51;9.75;;;4.18;;
42110;SDS011;27766;52.174;5.456;2023-02-27T00:48:18;13.88;;;4.38;;
42110;SDS011;27766;52.174;5.456;2023-02-27T00:50:45;8.10;;;4.15;;
42110;SDS011;27766;52.174;5.456;2023-02-27T00:53:12;9.30;;;4.30;;
42110;SDS011;27766;52.174;5.456;2023-02-27T00:55:39;12.23;;;4.40;;
42110;SDS011;27766;52.174;5.456;2023-02-27T00:58:06;7.00;;;4.32;;
42110;SDS011;27766;52.174;5.456;2023-02-27T01:00:34;7.95;;;4.18;;
42110;SDS011;27766;52.174;5.456;2023-02-27T01:03:01;19.40;;;5.07;;
42110;SDS011;27766;52.174;5.456;2023-02-27T01:05:28;9.13;;;4.10;;
42110;SDS011;27766;52.174;5.456;2023-02-27T01:07:55;9.05;;;4.35;;
42110;SDS011;27766;52.174;5.456;2023-02-27T01:10:23;14.38;;;4.25;;
42110;SDS011;27766;52.174;5.456;2023-02-27T01:12:50;8.63;;;3.83;;
42110;SDS011;27766;52.174;5.456;2023-02-27T01:15:17;16.40;;;4.25;;
42110;SDS011;27766;52.174;5.456;2023-02-27T01:17:44;7.40;;;4.15;;
42110;SDS011;27766;52.174;5.456;2023-02-27T01:20:14;17.48;;;4.55;;
42110;SDS011;27766;52.174;5.456;2023-02-27T01:22:41;6.57;;;3.58;;
42110;SDS011;27766;52.174;5.456;2023-02-27T01:25:09;7.88;;;4.47;;
42110;SDS011;27766;52.174;5.456;2023-02-27T01:27:36;10.98;;;4.35;;
42110;SDS011;27766;52.174;5.456;2023-02-27T01:30:04;10.02;;;4.78;;
42110;SDS011;27766;52.174;5.456;2023-02-27T01:32:32;10.35;;;4.22;;
42110;SDS011;27766;52.174;5.456;2023-02-27T01:34:59;6.90;;;3.60;;
42110;SDS011;27766;52.174;5.456;2023-02-27T01:37:26;8.43;;;3.95;;
42110;SDS011;27766;52.174;5.456;2023-02-27T01:39:54;7.95;;;3.63;;
42110;SDS011;27766;52.174;5.456;2023-02-27T01:42:22;8.98;;;3.53;;
42110;SDS011;27766;52.174;5.456;2023-02-27T01:47:36;5.63;;;3.42;;
42110;SDS011;27766;52.174;5.456;2023-02-27T01:50:24;6.50;;;3.38;;
42110;SDS011;27766;52.174;5.456;2023-02-27T01:52:53;10.07;;;3.83;;
42110;SDS011;27766;52.174;5.456;2023-02-27T01:55:24;9.87;;;4.33;;
42110;SDS011;27766;52.174;5.456;2023-02-27T01:57:54;5.72;;;3.38;;
42110;SDS011;27766;52.174;5.456;2023-02-27T02:00:23;7.32;;;3.92;;
42110;SDS011;27766;52.174;5.456;2023-02-27T02:02:56;5.90;;;3.05;;
42110;SDS011;27766;52.174;5.456;2023-02-27T02:05:30;5.30;;;3.50;;
42110;SDS011;27766;52.174;5.456;2023-02-27T02:07:57;7.88;;;3.22;;
42110;SDS011;27766;52.174;5.456;2023-02-27T02:10:25;8.32;;;4.13;;
42110;SDS011;27766;52.174;5.456;2023-02-27T02:12:54;10.05;;;4.25;;
42110;SDS011;27766;52.174;5.456;2023-02-27T02:15:28;8.95;;;3.50;;
42110;SDS011;27766;52.174;5.456;2023-02-27T02:18:05;8.45;;;3.08;;
42110;SDS011;27766;52.174;5.456;2023-02-27T02:35:19;7.68;;;3.58;;
42110;SDS011;27766;52.174;5.456;2023-02-27T02:43:53;8.57;;;2.97;;
42110;SDS011;27766;52.174;5.456;2023-02-27T02:52:04;8.25;;;3.08;;
42110;SDS011;27766;52.174;5.456;2023-02-27T02:54:47;9.90;;;3.45;;
42110;SDS011;27766;52.174;5.456;2023-02-27T02:57:22;6.35;;;3.35;;
42110;SDS011;27766;52.174;5.456;2023-02-27T03:00:05;5.55;;;2.65;;
42110;SDS011;27766;52.174;5.456;2023-02-27T03:02:48;9.93;;;3.38;;
42110;SDS011;27766;52.174;5.456;2023-02-27T03:05:22;4.35;;;3.03;;
42110;SDS011;27766;52.174;5.456;2023-02-27T03:07:59;8.52;;;3.58;;
42110;SDS011;27766;52.174;5.456;2023-02-27T03:10:32;3.28;;;2.13;;
42110;SDS011;27766;52.174;5.456;2023-02-27T03:13:14;8.32;;;3.20;;
42110;SDS011;27766;52.174;5.456;2023-02-27T03:15:48;3.92;;;2.63;;
42110;SDS011;27766;52.174;5.456;2023-02-27T03:18:21;11.07;;;2.20;;
42110;SDS011;27766;52.174;5.456;2023-02-27T03:20:55;9.20;;;1.95;;
42110;SDS011;27766;52.174;5.456;2023-02-27T03:23:27;5.18;;;2.47;;
42110;SDS011;27766;52.174;5.456;2023-02-27T03:26:00;3.78;;;2.38;;
42110;SDS011;27766;52.174;5.456;2023-02-27T03:28:30;3.97;;;2.05;;
42110;SDS011;27766;52.174;5.456;2023-02-27T03:31:08;10.32;;;1.80;;
42110;SDS011;27766;52.174;5.456;2023-02-27T03:33:46;5.45;;;2.35;;
42110;SDS011;27766;52.174;5.456;2023-02-27T03:36:27;3.42;;;1.92;;
42110;SDS011;27766;52.174;5.456;2023-02-27T03:41:59;17.17;;;2.45;;
42110;SDS011;27766;52.174;5.456;2023-02-27T03:44:42;6.47;;;1.90;;
42110;SDS011;27766;52.174;5.456;2023-02-27T03:47:32;5.47;;;2.35;;
42110;SDS011;27766;52.174;5.456;2023-02-27T03:50:00;4.82;;;1.95;;
42110;SDS011;27766;52.174;5.456;2023-02-27T03:52:27;4.03;;;1.73;;
42110;SDS011;27766;52.174;5.456;2023-02-27T03:54:56;1.48;;;1.25;;
42110;SDS011;27766;52.174;5.456;2023-02-27T03:57:28;2.03;;;1.42;;
42110;SDS011;27766;52.174;5.456;2023-02-27T03:59:58;4.95;;;2.25;;
42110;SDS011;27766;52.174;5.456;2023-02-27T04:02:26;4.15;;;1.52;;
42110;SDS011;27766;52.174;5.456;2023-02-27T04:04:54;4.15;;;1.67;;
42110;SDS011;27766;52.174;5.456;2023-02-27T04:07:25;3.38;;;1.80;;
42110;SDS011;27766;52.174;5.456;2023-02-27T04:20:58;5.50;;;2.55;;
42110;SDS011;27766;52.174;5.456;2023-02-27T04:23:38;4.80;;;2.05;;
42110;SDS011;27766;52.174;5.456;2023-02-27T04:26:16;3.30;;;1.67;;
42110;SDS011;27766;52.174;5.456;2023-02-27T04:28:55;6.57;;;2.15;;
42110;SDS011;27766;52.174;5.456;2023-02-27T04:37:14;6.10;;;2.42;;
42110;SDS011;27766;52.174;5.456;2023-02-27T04:39:47;4.07;;;2.38;;
42110;SDS011;27766;52.174;5.456;2023-02-27T04:42:20;6.07;;;2.47;;
42110;SDS011;27766;52.174;5.456;2023-02-27T04:44:53;12.48;;;2.65;;
42110;SDS011;27766;52.174;5.456;2023-02-27T04:47:23;9.18;;;2.88;;
42110;SDS011;27766;52.174;5.456;2023-02-27T04:49:55;2.80;;;2.30;;
42110;SDS011;27766;52.174;5.456;2023-02-27T04:53:12;6.18;;;2.25;;
42110;SDS011;27766;52.174;5.456;2023-02-27T04:55:32;4.03;;;2.25;;
42110;SDS011;27766;52.174;5.456;2023-02-27T04:58:06;4.47;;;2.10;;
42110;SDS011;27766;52.174;5.456;2023-02-27T05:00:41;7.03;;;2.78;;
42110;SDS011;27766;52.174;5.456;2023-02-27T05:03:18;6.23;;;2.00;;
42110;SDS011;27766;52.174;5.456;2023-02-27T05:05:52;7.00;;;2.22;;
42110;SDS011;27766;52.174;5.456;2023-02-27T05:11:09;6.10;;;2.20;;
42110;SDS011;27766;52.174;5.456;2023-02-27T05:13:45;5.32;;;2.40;;
42110;SDS011;27766;52.174;5.456;2023-02-27T05:16:30;3.17;;;2.10;;
42110;SDS011;27766;52.174;5.456;2023-02-27T05:19:02;6.53;;;2.63;;
42110;SDS011;27766;52.174;5.456;2023-02-27T05:21:33;4.60;;;2.20;;
42110;SDS011;27766;52.174;5.456;2023-02-27T05:26:58;3.60;;;1.77;;
42110;SDS011;27766;52.174;5.456;2023-02-27T05:35:08;22.20;;;10.48;;
42110;SDS011;27766;52.174;5.456;2023-02-27T05:40:09;23.63;;;11.50;;
42110;SDS011;27766;52.174;5.456;2023-02-27T05:42:42;16.85;;;9.45;;
42110;SDS011;27766;52.174;5.456;2023-02-27T05:45:16;11.70;;;7.63;;
42110;SDS011;27766;52.174;5.456;2023-02-27T05:47:57;9.13;;;6.13;;
42110;SDS011;27766;52.174;5.456;2023-02-27T05:50:31;19.20;;;6.65;;
42110;SDS011;27766;52.174;5.456;2023-02-27T05:53:02;12.80;;;5.60;;
42110;SDS011;27766;52.174;5.456;2023-02-27T05:55:35;10.75;;;5.05;;
42110;SDS011;27766;52.174;5.456;2023-02-27T05:58:11;11.73;;;4.15;;
42110;SDS011;27766;52.174;5.456;2023-02-27T06:03:22;8.43;;;5.03;;
42110;SDS011;27766;52.174;5.456;2023-02-27T06:05:51;6.78;;;4.50;;
42110;SDS011;27766;52.174;5.456;2023-02-27T06:08:20;14.93;;;5.13;;
42110;SDS011;27766;52.174;5.456;2023-02-27T06:10:48;10.05;;;4.88;;
42110;SDS011;27766;52.174;5.456;2023-02-27T06:13:18;15.52;;;4.05;;
42110;SDS011;27766;52.174;5.456;2023-02-27T06:15:45;17.20;;;4.45;;
42110;SDS011;27766;52.174;5.456;2023-02-27T06:18:13;6.53;;;4.05;;
42110;SDS011;27766;52.174;5.456;2023-02-27T06:20:41;9.07;;;3.15;;
42110;SDS011;27766;52.174;5.456;2023-02-27T06:23:09;5.68;;;2.95;;
42110;SDS011;27766;52.174;5.456;2023-02-27T06:25:37;6.10;;;2.85;;
42110;SDS011;27766;52.174;5.456;2023-02-27T06:28:04;10.52;;;3.30;;
42110;SDS011;27766;52.174;5.456;2023-02-27T06:30:32;5.18;;;3.40;;
42110;SDS011;27766;52.174;5.456;2023-02-27T06:32:59;7.22;;;3.65;;
42110;SDS011;27766;52.174;5.456;2023-02-27T06:35:27;8.27;;;3.38;;
42110;SDS011;27766;52.174;5.456;2023-02-27T06:37:55;5.93;;;3.20;;
42110;SDS011;27766;52.174;5.456;2023-02-27T06:40:22;8.60;;;3.38;;
42110;SDS011;27766;52.174;5.456;2023-02-27T06:42:50;11.55;;;4.40;;
42110;SDS011;27766;52.174;5.456;2023-02-27T06:45:17;17.50;;;4.75;;
42110;SDS011;27766;52.174;5.456;2023-02-27T06:47:44;7.13;;;3.70;;
42110;SDS011;27766;52.174;5.456;2023-02-27T06:50:12;10.75;;;4.25;;
42110;SDS011;27766;52.174;5.456;2023-02-27T06:52:39;8.70;;;3.70;;
42110;SDS011;27766;52.174;5.456;2023-02-27T06:55:07;10.02;;;3.80;;
42110;SDS011;27766;52.174;5.456;2023-02-27T06:57:34;11.48;;;4.45;;
42110;SDS011;27766;52.174;5.456;2023-02-27T07:00:03;11.70;;;4.07;;
42110;SDS011;27766;52.174;5.456;2023-02-27T07:02:32;12.55;;;4.55;;
42110;SDS011;27766;52.174;5.456;2023-02-27T07:04:59;7.85;;;4.25;;
42110;SDS011;27766;52.174;5.456;2023-02-27T07:07:34;9.68;;;4.78;;
42110;SDS011;27766;52.174;5.456;2023-02-27T07:10:04;8.70;;;3.42;;
42110;SDS011;27766;52.174;5.456;2023-02-27T07:12:33;19.83;;;4.28;;
42110;SDS011;27766;52.174;5.456;2023-02-27T07:15:00;10.63;;;3.47;;
42110;SDS011;27766;52.174;5.456;2023-02-27T07:17:28;9.95;;;3.45;;
42110;SDS011;27766;52.174;5.456;2023-02-27T07:19:55;8.05;;;3.45;;
42110;SDS011;27766;52.174;5.456;2023-02-27T07:22:23;9.25;;;3.60;;
42110;SDS011;27766;52.174;5.456;2023-02-27T07:24:50;12.77;;;4.15;;
42110;SDS011;27766;52.174;5.456;2023-02-27T07:27:17;7.80;;;3.78;;
42110;SDS011;27766;52.174;5.456;2023-02-27T07:29:44;9.93;;;3.88;;
42110;SDS011;27766;52.174;5.456;2023-02-27T07:32:12;8.00;;;3.13;;
42110;SDS011;27766;52.174;5.456;2023-02-27T07:34:39;11.43;;;3.75;;
42110;SDS011;27766;52.174;5.456;2023-02-27T07:37:06;16.75;;;4.60;;
42110;SDS011;27766;52.174;5.456;2023-02-27T07:39:33;6.30;;;3.38;;
42110;SDS011;27766;52.174;5.456;2023-02-27T07:42:00;8.98;;;3.80;;
42110;SDS011;27766;52.174;5.456;2023-02-27T07:44:28;5.45;;;3.83;;
42110;SDS011;27766;52.174;5.456;2023-02-27T07:46:55;4.43;;;3.42;;
42110;SDS011;27766;52.174;5.456;2023-02-27T07:49:23;9.60;;;3.47;;
42110;SDS011;27766;52.174;5.456;2023-02-27T07:51:50;10.50;;;4.10;;
42110;SDS011;27766;52.174;5.456;2023-02-27T07:54:17;9.63;;;4.35;;
42110;SDS011;27766;52.174;5.456;2023-02-27T07:56:44;11.65;;;3.75;;
42110;SDS011;27766;52.174;5.456;2023-02-27T07:59:11;10.50;;;3.50;;
42110;SDS011;27766;52.174;5.456;2023-02-27T08:01:39;7.53;;;3.58;;
42110;SDS011;27766;52.174;5.456;2023-02-27T08:04:06;3.45;;;2.78;;
42110;SDS011;27766;52.174;5.456;2023-02-27T08:06:33;19.05;;;3.58;;
42110;SDS011;27766;52.174;5.456;2023-02-27T08:09:00;6.78;;;3.25;;
42110;SDS011;27766;52.174;5.456;2023-02-27T08:11:27;5.95;;;3.08;;
42110;SDS011;27766;52.174;5.456;2023-02-27T08:13:55;8.60;;;2.90;;
42110;SDS011;27766;52.174;5.456;2023-02-27T08:16:27;4.55;;;2.75;;
42110;SDS011;27766;52.174;5.456;2023-02-27T08:18:55;11.23;;;3.25;;
42110;SDS011;27766;52.174;5.456;2023-02-27T08:21:23;5.57;;;2.88;;
42110;SDS011;27766;52.174;5.456;2023-02-27T08:23:50;4.18;;;2.50;;
42110;SDS011;27766;52.174;5.456;2023-02-27T08:26:17;7.85;;;2.75;;
42110;SDS011;27766;52.174;5.456;2023-02-27T08:28:45;6.32;;;2.85;;
42110;SDS011;27766;52.174;5.456;2023-02-27T08:31:12;6.05;;;2.92;;
42110;SDS011;27766;52.174;5.456;2023-02-27T08:33:39;18.75;;;8.15;;
42110;SDS011;27766;52.174;5.456;2023-02-27T08:36:06;20.75;;;10.13;;
42110;SDS011;27766;52.174;5.456;2023-02-27T08:38:34;27.50;;;13.68;;
42110;SDS011;27766;52.174;5.456;2023-02-27T08:41:01;39.28;;;17.13;;
42110;SDS011;27766;52.174;5.456;2023-02-27T08:43:29;50.22;;;21.70;;
42110;SDS011;27766;52.174;5.456;2023-02-27T08:45:57;12.10;;;7.35;;
42110;SDS011;27766;52.174;5.456;2023-02-27T08:48:24;8.48;;;4.40;;
42110;SDS011;27766;52.174;5.456;2023-02-27T08:50:52;8.18;;;3.20;;
42110;SDS011;27766;52.174;5.456;2023-02-27T08:53:22;6.95;;;3.33;;
42110;SDS011;27766;52.174;5.456;2023-02-27T08:55:50;5.78;;;2.75;;
42110;SDS011;27766;52.174;5.456;2023-02-27T08:58:18;5.72;;;2.47;;
42110;SDS011;27766;52.174;5.456;2023-02-27T09:00:46;5.90;;;2.72;;
42110;SDS011;27766;52.174;5.456;2023-02-27T09:03:13;6.75;;;2.42;;
42110;SDS011;27766;52.174;5.456;2023-02-27T09:05:41;13.13;;;2.60;;
42110;SDS011;27766;52.174;5.456;2023-02-27T09:08:09;5.88;;;2.53;;
42110;SDS011;27766;52.174;5.456;2023-02-27T09:10:36;7.47;;;1.95;;
42110;SDS011;27766;52.174;5.456;2023-02-27T09:13:03;5.45;;;2.60;;
42110;SDS011;27766;52.174;5.456;2023-02-27T09:15:30;6.05;;;2.80;;
42110;SDS011;27766;52.174;5.456;2023-02-27T09:18:00;11.45;;;3.78;;
42110;SDS011;27766;52.174;5.456;2023-02-27T09:20:29;7.70;;;2.88;;
42110;SDS011;27766;52.174;5.456;2023-02-27T09:22:58;6.38;;;2.78;;
42110;SDS011;27766;52.174;5.456;2023-02-27T09:25:25;6.70;;;2.63;;
42110;SDS011;27766;52.174;5.456;2023-02-27T09:27:53;4.93;;;2.42;;
42110;SDS011;27766;52.174;5.456;2023-02-27T09:30:21;4.53;;;2.28;;
42110;SDS011;27766;52.174;5.456;2023-02-27T09:32:49;6.03;;;2.15;;
42110;SDS011;27766;52.174;5.456;2023-02-27T09:35:17;4.20;;;1.90;;
42110;SDS011;27766;52.174;5.456;2023-02-27T09:37:46;7.63;;;2.83;;
42110;SDS011;27766;52.174;5.456;2023-02-27T09:40:22;13.75;;;2.20;;
42110;SDS011;27766;52.174;5.456;2023-02-27T09:42:53;4.30;;;2.45;;
42110;SDS011;27766;52.174;5.456;2023-02-27T09:45:42;8.35;;;1.90;;
42110;SDS011;27766;52.174;5.456;2023-02-27T09:48:12;13.68;;;1.48;;
42110;SDS011;27766;52.174;5.456;2023-02-27T09:50:48;5.25;;;1.60;;
42110;SDS011;27766;52.174;5.456;2023-02-27T09:53:25;8.70;;;1.58;;
42110;SDS011;27766;52.174;5.456;2023-02-27T09:58:45;8.98;;;1.58;;
42110;SDS011;27766;52.174;5.456;2023-02-27T10:01:31;14.65;;;1.77;;
42110;SDS011;27766;52.174;5.456;2023-02-27T10:15:03;2.03;;;0.95;;
42110;SDS011;27766;52.174;5.456;2023-02-27T10:17:50;1.85;;;0.60;;
42110;SDS011;27766;52.174;5.456;2023-02-27T10:20:35;3.53;;;0.80;;
42110;SDS011;27766;52.174;5.456;2023-02-27T10:23:10;1.77;;;0.80;;
42110;SDS011;27766;52.174;5.456;2023-02-27T10:25:45;1.35;;;0.73;;
42110;SDS011;27766;52.174;5.456;2023-02-27T10:28:19;3.97;;;0.82;;
42110;SDS011;27766;52.174;5.456;2023-02-27T10:30:48;2.97;;;1.13;;
42110;SDS011;27766;52.174;5.456;2023-02-27T10:35:49;2.63;;;1.08;;
42110;SDS011;27766;52.174;5.456;2023-02-27T10:38:38;11.63;;;1.27;;
42110;SDS011;27766;52.174;5.456;2023-02-27T10:41:10;1.60;;;0.70;;
42110;SDS011;27766;52.174;5.456;2023-02-27T10:43:40;1.80;;;0.80;;
42110;SDS011;27766;52.174;5.456;2023-02-27T10:46:14;2.33;;;0.80;;
42110;SDS011;27766;52.174;5.456;2023-02-27T10:48:44;1.85;;;0.73;;
42110;SDS011;27766;52.174;5.456;2023-02-27T10:51:18;1.83;;;0.60;;
42110;SDS011;27766;52.174;5.456;2023-02-27T10:53:51;2.08;;;1.15;;
42110;SDS011;27766;52.174;5.456;2023-02-27T10:56:45;2.08;;;0.63;;
42110;SDS011;27766;52.174;5.456;2023-02-27T10:59:24;0.75;;;0.47;;
42110;SDS011;27766;52.174;5.456;2023-02-27T11:02:00;2.33;;;0.70;;
42110;SDS011;27766;52.174;5.456;2023-02-27T11:04:53;3.22;;;0.88;;
42110;SDS011;27766;52.174;5.456;2023-02-27T11:07:27;2.80;;;0.80;;
42110;SDS011;27766;52.174;5.456;2023-02-27T11:10:22;2.63;;;0.88;;
42110;SDS011;27766;52.174;5.456;2023-02-27T11:13:04;2.05;;;0.75;;
42110;SDS011;27766;52.174;5.456;2023-02-27T11:15:59;0.52;;;0.40;;
42110;SDS011;27766;52.174;5.456;2023-02-27T11:18:32;1.85;;;0.50;;
42110;SDS011;27766;52.174;5.456;2023-02-27T11:24:19;2.92;;;0.82;;
42110;SDS011;27766;52.174;5.456;2023-02-27T11:26:55;3.13;;;0.75;;
42110;SDS011;27766;52.174;5.456;2023-02-27T11:29:24;3.22;;;0.65;;
42110;SDS011;27766;52.174;5.456;2023-02-27T11:31:55;0.85;;;0.65;;
42110;SDS011;27766;52.174;5.456;2023-02-27T11:34:27;3.20;;;0.68;;
42110;SDS011;27766;52.174;5.456;2023-02-27T11:36:59;2.03;;;0.90;;
42110;SDS011;27766;52.174;5.456;2023-02-27T11:42:04;1.75;;;0.82;;
42110;SDS011;27766;52.174;5.456;2023-02-27T11:44:47;0.98;;;0.50;;
42110;SDS011;27766;52.174;5.456;2023-02-27T11:47:20;2.30;;;0.73;;
42110;SDS011;27766;52.174;5.456;2023-02-27T11:49:57;1.70;;;0.70;;
42110;SDS011;27766;52.174;5.456;2023-02-27T11:54:59;2.85;;;0.40;;
42110;SDS011;27766;52.174;5.456;2023-02-27T11:57:34;0.35;;;0.30;;
42110;SDS011;27766;52.174;5.456;2023-02-27T12:02:55;0.75;;;0.50;;
42110;SDS011;27766;52.174;5.456;2023-02-27T12:05:41;3.53;;;0.35;;
42110;SDS011;27766;52.174;5.456;2023-02-27T12:10:47;1.13;;;0.65;;
42110;SDS011;27766;52.174;5.456;2023-02-27T12:13:35;1.42;;;0.68;;
42110;SDS011;27766;52.174;5.456;2023-02-27T12:16:23;0.50;;;0.40;;
42110;SDS011;27766;52.174;5.456;2023-02-27T12:19:15;0.60;;;0.35;;
42110;SDS011;27766;52.174;5.456;2023-02-27T12:21:57;0.60;;;0.40;;
42110;SDS011;27766;52.174;5.456;2023-02-27T12:24:43;3.38;;;0.90;;
42110;SDS011;27766;52.174;5.456;2023-02-27T12:33:09;3.20;;;0.90;;
42110;SDS011;27766;52.174;5.456;2023-02-27T12:35:43;5.32;;;0.57;;
42110;SDS011;27766;52.174;5.456;2023-02-27T12:38:22;1.13;;;0.68;;
42110;SDS011;27766;52.174;5.456;2023-02-27T12:54:29;1.42;;;0.80;;
42110;SDS011;27766;52.174;5.456;2023-02-27T12:57:10;1.40;;;0.70;;
42110;SDS011;27766;52.174;5.456;2023-02-27T13:02:42;2.22;;;0.90;;
42110;SDS011;27766;52.174;5.456;2023-02-27T13:07:47;2.40;;;1.10;;
42110;SDS011;27766;52.174;5.456;2023-02-27T13:10:34;2.85;;;0.90;;
42110;SDS011;27766;52.174;5.456;2023-02-27T13:19:13;1.35;;;0.80;;
42110;SDS011;27766;52.174;5.456;2023-02-27T13:24:25;1.98;;;0.90;;
42110;SDS011;27766;52.174;5.456;2023-02-27T13:29:40;1.77;;;0.68;;
42110;SDS011;27766;52.174;5.456;2023-02-27T13:35:24;5.20;;;1.35;;
42110;SDS011;27766;52.174;5.456;2023-02-27T13:38:00;1.42;;;0.90;;
42110;SDS011;27766;52.174;5.456;2023-02-27T13:40:32;1.42;;;0.80;;
42110;SDS011;27766;52.174;5.456;2023-02-27T13:43:04;1.65;;;0.80;;
42110;SDS011;27766;52.174;5.456;2023-02-27T13:50:59;0.97;;;0.63;;
42110;SDS011;27766;52.174;5.456;2023-02-27T13:53:27;4.15;;;0.63;;
42110;SDS011;27766;52.174;5.456;2023-02-27T13:55:56;2.33;;;0.88;;
42110;SDS011;27766;52.174;5.456;2023-02-27T13:58:43;3.38;;;0.93;;
42110;SDS011;27766;52.174;5.456;2023-02-27T14:01:21;1.55;;;0.70;;
42110;SDS011;27766;52.174;5.456;2023-02-27T14:03:56;2.15;;;0.70;;
42110;SDS011;27766;52.174;5.456;2023-02-27T14:06:30;4.18;;;0.88;;
42110;SDS011;27766;52.174;5.456;2023-02-27T14:08:57;2.03;;;1.58;;
42110;SDS011;27766;52.174;5.456;2023-02-27T14:11:40;1.08;;;0.57;;
42110;SDS011;27766;52.174;5.456;2023-02-27T14:14:35;2.55;;;0.88;;
42110;SDS011;27766;52.174;5.456;2023-02-27T14:17:13;4.38;;;1.83;;
42110;SDS011;27766;52.174;5.456;2023-02-27T14:20:03;2.60;;;1.48;;
42110;SDS011;27766;52.174;5.456;2023-02-27T14:22:40;2.53;;;1.20;;
42110;SDS011;27766;52.174;5.456;2023-02-27T14:25:30;5.53;;;1.92;;
42110;SDS011;27766;52.174;5.456;2023-02-27T14:28:01;4.25;;;2.08;;
42110;SDS011;27766;52.174;5.456;2023-02-27T14:30:41;3.58;;;1.60;;
42110;SDS011;27766;52.174;5.456;2023-02-27T14:33:17;2.13;;;1.30;;
42110;SDS011;27766;52.174;5.456;2023-02-27T14:36:13;6.20;;;2.13;;
42110;SDS011;27766;52.174;5.456;2023-02-27T14:38:44;3.67;;;2.40;;
42110;SDS011;27766;52.174;5.456;2023-02-27T14:44:22;1.83;;;1.30;;
42110;SDS011;27766;52.174;5.456;2023-02-27T14:46:51;1.92;;;1.00;;
42110;SDS011;27766;52.174;5.456;2023-02-27T14:49:21;2.78;;;1.10;;
42110;SDS011;27766;52.174;5.456;2023-02-27T14:51:51;2.67;;;1.10;;
42110;SDS011;27766;52.174;5.456;2023-02-27T14:54:20;1.38;;;1.00;;
42110;SDS011;27766;52.174;5.456;2023-02-27T14:57:00;1.27;;;0.82;;
42110;SDS011;27766;52.174;5.456;2023-02-27T14:59:32;4.60;;;1.17;;
42110;SDS011;27766;52.174;5.456;2023-02-27T15:02:20;1.48;;;0.80;;
42110;SDS011;27766;52.174;5.456;2023-02-27T15:04:49;1.95;;;0.88;;
42110;SDS011;27766;52.174;5.456;2023-02-27T15:07:39;1.13;;;0.73;;
42110;SDS011;27766;52.174;5.456;2023-02-27T15:10:07;1.95;;;0.98;;
42110;SDS011;27766;52.174;5.456;2023-02-27T15:12:37;2.92;;;1.60;;
42110;SDS011;27766;52.174;5.456;2023-02-27T15:15:05;2.25;;;1.70;;
42110;SDS011;27766;52.174;5.456;2023-02-27T15:17:36;3.75;;;1.77;;
42110;SDS011;27766;52.174;5.456;2023-02-27T15:23:17;2.13;;;1.48;;
42110;SDS011;27766;52.174;5.456;2023-02-27T15:25:49;2.10;;;1.27;;
42110;SDS011;27766;52.174;5.456;2023-02-27T15:28:29;2.75;;;1.30;;
42110;SDS011;27766;52.174;5.456;2023-02-27T15:31:03;3.47;;;1.35;;
42110;SDS011;27766;52.174;5.456;2023-02-27T15:33:31;3.10;;;0.95;;
42110;SDS011;27766;52.174;5.456;2023-02-27T15:35:59;1.30;;;1.00;;
42110;SDS011;27766;52.174;5.456;2023-02-27T15:38:28;3.53;;;1.17;;
42110;SDS011;27766;52.174;5.456;2023-02-27T15:40:57;1.35;;;1.00;;
42110;SDS011;27766;52.174;5.456;2023-02-27T15:43:26;2.92;;;1.75;;
42110;SDS011;27766;52.174;5.456;2023-02-27T15:45:54;3.30;;;1.48;;
42110;SDS011;27766;52.174;5.456;2023-02-27T15:48:24;2.25;;;1.88;;
42110;SDS011;27766;52.174;5.456;2023-02-27T15:50:53;2.58;;;1.30;;
42110;SDS011;27766;52.174;5.456;2023-02-27T15:53:25;8.30;;;1.92;;
42110;SDS011;27766;52.174;5.456;2023-02-27T15:55:55;2.33;;;1.52;;
42110;SDS011;27766;52.174;5.456;2023-02-27T15:58:26;2.60;;;1.38;;
42110;SDS011;27766;52.174;5.456;2023-02-27T16:01:10;1.52;;;1.20;;
42110;SDS011;27766;52.174;5.456;2023-02-27T16:03:43;2.65;;;1.33;;
42110;SDS011;27766;52.174;5.456;2023-02-27T16:08:58;1.98;;;0.95;;
42110;SDS011;27766;52.174;5.456;2023-02-27T16:11:30;1.35;;;0.80;;
42110;SDS011;27766;52.174;5.456;2023-02-27T16:13:59;3.45;;;0.95;;
42110;SDS011;27766;52.174;5.456;2023-02-27T16:16:31;1.02;;;0.68;;
42110;SDS011;27766;52.174;5.456;2023-02-27T16:19:13;2.58;;;0.88;;
42110;SDS011;27766;52.174;5.456;2023-02-27T16:22:10;3.55;;;1.40;;
42110;SDS011;27766;52.174;5.456;2023-02-27T16:24:39;2.47;;;1.30;;
42110;SDS011;27766;52.174;5.456;2023-02-27T16:27:14;3.97;;;1.33;;
42110;SDS011;27766;52.174;5.456;2023-02-27T16:29:49;2.95;;;1.35;;
42110;SDS011;27766;52.174;5.456;2023-02-27T16:32:19;4.65;;;0.93;;
42110;SDS011;27766;52.174;5.456;2023-02-27T16:34:50;1.35;;;1.17;;
42110;SDS011;27766;52.174;5.456;2023-02-27T16:37:19;1.67;;;0.82;;
42110;SDS011;27766;52.174;5.456;2023-02-27T16:39:49;1.50;;;1.02;;
42110;SDS011;27766;52.174;5.456;2023-02-27T16:42:20;2.05;;;0.80;;
42110;SDS011;27766;52.174;5.456;2023-02-27T16:44:47;3.05;;;1.08;;
42110;SDS011;27766;52.174;5.456;2023-02-27T16:47:14;1.73;;;0.90;;
42110;SDS011;27766;52.174;5.456;2023-02-27T16:49:41;5.43;;;1.33;;
42110;SDS011;27766;52.174;5.456;2023-02-27T16:52:11;4.10;;;0.95;;
42110;SDS011;27766;52.174;5.456;2023-02-27T16:54:38;2.60;;;1.45;;
42110;SDS011;27766;52.174;5.456;2023-02-27T16:57:05;2.13;;;1.20;;
42110;SDS011;27766;52.174;5.456;2023-02-27T16:59:33;2.95;;;1.35;;
42110;SDS011;27766;52.174;5.456;2023-02-27T17:02:03;2.15;;;1.08;;
42110;SDS011;27766;52.174;5.456;2023-02-27T17:04:32;1.63;;;1.10;;
42110;SDS011;27766;52.174;5.456;2023-02-27T17:07:00;2.30;;;1.30;;
42110;SDS011;27766;52.174;5.456;2023-02-27T17:09:27;2.88;;;1.33;;
42110;SDS011;27766;52.174;5.456;2023-02-27T17:11:55;2.85;;;2.17;;
42110;SDS011;27766;52.174;5.456;2023-02-27T17:14:24;3.50;;;1.35;;
42110;SDS011;27766;52.174;5.456;2023-02-27T17:16:51;2.60;;;0.98;;
42110;SDS011;27766;52.174;5.456;2023-02-27T17:19:18;1.52;;;0.95;;
42110;SDS011;27766;52.174;5.456;2023-02-27T17:21:47;3.42;;;1.33;;
42110;SDS011;27766;52.174;5.456;2023-02-27T17:24:14;5.68;;;1.25;;
42110;SDS011;27766;52.174;5.456;2023-02-27T17:26:41;2.72;;;1.63;;
42110;SDS011;27766;52.174;5.456;2023-02-27T17:29:09;2.60;;;1.60;;
42110;SDS011;27766;52.174;5.456;2023-02-27T17:31:36;2.78;;;1.40;;
42110;SDS011;27766;52.174;5.456;2023-02-27T17:34:03;1.63;;;1.20;;
42110;SDS011;27766;52.174;5.456;2023-02-27T17:36:31;2.08;;;1.17;;
42110;SDS011;27766;52.174;5.456;2023-02-27T17:38:58;6.78;;;2.05;;
42110;SDS011;27766;52.174;5.456;2023-02-27T17:41:29;4.70;;;2.22;;
42110;SDS011;27766;52.174;5.456;2023-02-27T17:43:57;6.32;;;3.90;;